sensor_id;sensor_type;location;lat;lon;timestamp;temperature;humidity
59282;DHT22;45054;52.062;10.010;2024-03-22T00:01:01;8.50;99.90
59282;DHT22;45054;52.062;10.010;2024-03-22T00:03:27;8.50;99.90
59282;DHT22;45054;52.062;10.010;2024-03-22T00:05:52;8.50;99.90
59282;DHT22;45054;52.062;10.010;2024-03-22T00:08:18;8.50;99.90
59282;DHT22;45054;52.062;10.010;2024-03-22T00:10:44;8.50;99.90
59282;DHT22;45054;52.062;10.010;2024-03-22T00:13:10;8.50;99.90
59282;DHT22;45054;52.062;10.010;2024-03-22T00:15:36;8.50;99.90
59282;DHT22;45054;52.062;10.010;2024-03-22T00:18:02;8.50;99.90
59282;DHT22;45054;52.062;10.010;2024-03-22T00:20:27;8.50;99.90
59282;DHT22;45054;52.062;10.010;2024-03-22T00:22:53;8.50;99.90
59282;DHT22;45054;52.062;10.010;2024-03-22T00:25:19;8.50;99.90
59282;DHT22;45054;52.062;10.010;2024-03-22T00:27:44;8.60;99.90
59282;DHT22;45054;52.062;10.010;2024-03-22T00:30:11;8.60;99.90
59282;DHT22;45054;52.062;10.010;2024-03-22T00:32:37;8.60;99.90
59282;DHT22;45054;52.062;10.010;2024-03-22T00:35:03;8.60;99.90
59282;DHT22;45054;52.062;10.010;2024-03-22T00:37:29;8.60;99.90
59282;DHT22;45054;52.062;10.010;2024-03-22T00:39:54;8.60;99.90
59282;DHT22;45054;52.062;10.010;2024-03-22T00:42:20;8.60;99.90
59282;DHT22;45054;52.062;10.010;2024-03-22T00:44:46;8.60;99.90
59282;DHT22;45054;52.062;10.010;2024-03-22T00:47:12;8.60;99.90
59282;DHT22;45054;52.062;10.010;2024-03-22T00:49:38;8.70;99.90
59282;DHT22;45054;52.062;10.010;2024-03-22T00:52:04;8.70;99.90
59282;DHT22;45054;52.062;10.010;2024-03-22T00:54:29;8.60;99.90
59282;DHT22;45054;52.062;10.010;2024-03-22T00:56:55;8.60;99.90
59282;DHT22;45054;52.062;10.010;2024-03-22T00:59:20;8.60;99.90
59282;DHT22;45054;52.062;10.010;2024-03-22T01:01:46;8.60;99.90
59282;DHT22;45054;52.062;10.010;2024-03-22T01:04:13;8.60;99.90
59282;DHT22;45054;52.062;10.010;2024-03-22T01:06:38;8.60;99.90
59282;DHT22;45054;52.062;10.010;2024-03-22T01:09:04;8.60;99.90
59282;DHT22;45054;52.062;10.010;2024-03-22T01:11:30;8.60;99.90
59282;DHT22;45054;52.062;10.010;2024-03-22T01:13:55;8.70;99.90
59282;DHT22;45054;52.062;10.010;2024-03-22T01:16:21;8.70;99.90
59282;DHT22;45054;52.062;10.010;2024-03-22T01:18:46;8.70;99.90
59282;DHT22;45054;52.062;10.010;2024-03-22T01:21:13;8.70;99.90
59282;DHT22;45054;52.062;10.010;2024-03-22T01:23:39;8.70;99.90
59282;DHT22;45054;52.062;10.010;2024-03-22T01:26:04;8.70;99.90
59282;DHT22;45054;52.062;10.010;2024-03-22T01:28:30;8.70;99.90
59282;DHT22;45054;52.062;10.010;2024-03-22T01:30:56;8.70;99.90
59282;DHT22;45054;52.062;10.010;2024-03-22T01:33:21;8.70;99.90
59282;DHT22;45054;52.062;10.010;2024-03-22T01:35:47;8.70;99.90
59282;DHT22;45054;52.062;10.010;2024-03-22T01:38:14;8.70;99.90
59282;DHT22;45054;52.062;10.010;2024-03-22T01:40:39;8.80;99.90
59282;DHT22;45054;52.062;10.010;2024-03-22T01:43:05;8.80;99.90
59282;DHT22;45054;52.062;10.010;2024-03-22T01:45:32;8.80;99.90
59282;DHT22;45054;52.062;10.010;2024-03-22T01:47:59;8.80;99.90
59282;DHT22;45054;52.062;10.010;2024-03-22T01:50:24;8.90;99.90
59282;DHT22;45054;52.062;10.010;2024-03-22T01:52:51;8.90;99.90
59282;DHT22;45054;52.062;10.010;2024-03-22T01:55:18;8.90;99.90
59282;DHT22;45054;52.062;10.010;2024-03-22T01:57:43;8.90;99.90
59282;DHT22;45054;52.062;10.010;2024-03-22T02:00:10;8.90;99.90
59282;DHT22;45054;52.062;10.010;2024-03-22T02:02:36;8.90;99.90
59282;DHT22;45054;52.062;10.010;2024-03-22T02:05:11;8.90;99.90
59282;DHT22;45054;52.062;10.010;2024-03-22T02:07:37;8.90;99.90
59282;DHT22;45054;52.062;10.010;2024-03-22T02:10:03;8.90;99.90
59282;DHT22;45054;52.062;10.010;2024-03-22T02:12:30;8.80;99.90
59282;DHT22;45054;52.062;10.010;2024-03-22T02:14:57;8.80;99.90
59282;DHT22;45054;52.062;10.010;2024-03-22T02:17:23;8.80;99.90
59282;DHT22;45054;52.062;10.010;2024-03-22T02:19:48;8.80;99.90
59282;DHT22;45054;52.062;10.010;2024-03-22T02:22:14;8.80;99.90
59282;DHT22;45054;52.062;10.010;2024-03-22T02:24:41;8.80;99.90
59282;DHT22;45054;52.062;10.010;2024-03-22T02:27:07;8.80;99.90
59282;DHT22;45054;52.062;10.010;2024-03-22T02:29:32;8.90;99.90
59282;DHT22;45054;52.062;10.010;2024-03-22T02:31:58;8.90;99.90
59282;DHT22;45054;52.062;10.010;2024-03-22T02:34:23;8.90;99.90
59282;DHT22;45054;52.062;10.010;2024-03-22T02:36:49;8.90;99.90
59282;DHT22;45054;52.062;10.010;2024-03-22T02:39:15;8.90;99.90
59282;DHT22;45054;52.062;10.010;2024-03-22T02:41:42;8.90;99.90
59282;DHT22;45054;52.062;10.010;2024-03-22T02:44:07;9.00;99.90
59282;DHT22;45054;52.062;10.010;2024-03-22T02:46:33;8.90;99.90
59282;DHT22;45054;52.062;10.010;2024-03-22T02:48:58;8.90;99.90
59282;DHT22;45054;52.062;10.010;2024-03-22T02:51:24;8.90;99.90
59282;DHT22;45054;52.062;10.010;2024-03-22T02:53:50;8.90;99.90
59282;DHT22;45054;52.062;10.010;2024-03-22T02:56:15;8.90;99.90
59282;DHT22;45054;52.062;10.010;2024-03-22T02:58:42;8.90;99.90
59282;DHT22;45054;52.062;10.010;2024-03-22T03:01:08;8.80;99.90
59282;DHT22;45054;52.062;10.010;2024-03-22T03:03:33;8.80;99.90
59282;DHT22;45054;52.062;10.010;2024-03-22T03:05:59;8.80;99.90
59282;DHT22;45054;52.062;10.010;2024-03-22T03:08:24;8.80;99.90
59282;DHT22;45054;52.062;10.010;2024-03-22T03:10:50;8.80;99.90
59282;DHT22;45054;52.062;10.010;2024-03-22T03:13:15;8.80;99.90
59282;DHT22;45054;52.062;10.010;2024-03-22T03:15:42;8.80;99.90
59282;DHT22;45054;52.062;10.010;2024-03-22T03:18:08;8.80;99.90
59282;DHT22;45054;52.062;10.010;2024-03-22T03:20:33;8.80;99.90
59282;DHT22;45054;52.062;10.010;2024-03-22T03:22:59;8.80;99.90
59282;DHT22;45054;52.062;10.010;2024-03-22T03:25:24;8.80;99.90
59282;DHT22;45054;52.062;10.010;2024-03-22T03:27:50;8.80;99.90
59282;DHT22;45054;52.062;10.010;2024-03-22T03:30:16;8.80;99.90
59282;DHT22;45054;52.062;10.010;2024-03-22T03:32:42;8.80;99.90
59282;DHT22;45054;52.062;10.010;2024-03-22T03:35:08;8.80;99.90
59282;DHT22;45054;52.062;10.010;2024-03-22T03:37:34;8.80;99.90
59282;DHT22;45054;52.062;10.010;2024-03-22T03:39:59;8.80;99.90
59282;DHT22;45054;52.062;10.010;2024-03-22T03:42:25;8.80;99.90
59282;DHT22;45054;52.062;10.010;2024-03-22T03:44:50;8.80;99.90
59282;DHT22;45054;52.062;10.010;2024-03-22T03:47:16;8.90;99.90
59282;DHT22;45054;52.062;10.010;2024-03-22T03:49:45;8.80;99.90
59282;DHT22;45054;52.062;10.010;2024-03-22T03:52:10;8.80;99.90
59282;DHT22;45054;52.062;10.010;2024-03-22T03:54:36;8.80;99.90
59282;DHT22;45054;52.062;10.010;2024-03-22T03:57:01;8.80;99.90
59282;DHT22;45054;52.062;10.010;2024-03-22T03:59:27;8.80;99.90
59282;DHT22;45054;52.062;10.010;2024-03-22T04:01:53;8.80;99.90
59282;DHT22;45054;52.062;10.010;2024-03-22T04:04:18;8.80;99.90
59282;DHT22;45054;52.062;10.010;2024-03-22T04:06:45;8.70;99.90
59282;DHT22;45054;52.062;10.010;2024-03-22T04:09:11;8.70;99.90
59282;DHT22;45054;52.062;10.010;2024-03-22T04:11:36;8.70;99.90
59282;DHT22;45054;52.062;10.010;2024-03-22T04:14:02;8.70;99.90
59282;DHT22;45054;52.062;10.010;2024-03-22T04:16:27;8.70;99.90
59282;DHT22;45054;52.062;10.010;2024-03-22T04:18:53;8.70;99.90
59282;DHT22;45054;52.062;10.010;2024-03-22T04:21:18;8.70;99.90
59282;DHT22;45054;52.062;10.010;2024-03-22T04:23:45;8.70;99.90
59282;DHT22;45054;52.062;10.010;2024-03-22T04:26:11;8.70;99.90
59282;DHT22;45054;52.062;10.010;2024-03-22T04:28:36;8.70;99.90
59282;DHT22;45054;52.062;10.010;2024-03-22T04:31:03;8.70;99.90
59282;DHT22;45054;52.062;10.010;2024-03-22T04:33:30;8.70;99.90
59282;DHT22;45054;52.062;10.010;2024-03-22T04:35:57;8.70;99.90
59282;DHT22;45054;52.062;10.010;2024-03-22T04:38:22;8.60;99.90
59282;DHT22;45054;52.062;10.010;2024-03-22T04:40:49;8.70;99.90
59282;DHT22;45054;52.062;10.010;2024-03-22T04:43:15;8.70;99.90
59282;DHT22;45054;52.062;10.010;2024-03-22T04:45:42;8.70;99.90
59282;DHT22;45054;52.062;10.010;2024-03-22T04:48:07;8.70;99.90
59282;DHT22;45054;52.062;10.010;2024-03-22T04:50:33;8.70;99.90
59282;DHT22;45054;52.062;10.010;2024-03-22T04:52:58;8.70;99.90
59282;DHT22;45054;52.062;10.010;2024-03-22T04:55:24;8.70;99.90
59282;DHT22;45054;52.062;10.010;2024-03-22T04:57:51;8.60;99.90
59282;DHT22;45054;52.062;10.010;2024-03-22T05:00:18;8.70;99.90
59282;DHT22;45054;52.062;10.010;2024-03-22T05:02:43;8.60;99.90
59282;DHT22;45054;52.062;10.010;2024-03-22T05:05:09;8.60;99.90
59282;DHT22;45054;52.062;10.010;2024-03-22T05:07:35;8.60;99.90
59282;DHT22;45054;52.062;10.010;2024-03-22T05:10:01;8.60;99.90
59282;DHT22;45054;52.062;10.010;2024-03-22T05:12:26;8.60;99.90
59282;DHT22;45054;52.062;10.010;2024-03-22T05:14:53;8.70;99.90
59282;DHT22;45054;52.062;10.010;2024-03-22T05:17:19;8.70;99.90
59282;DHT22;45054;52.062;10.010;2024-03-22T05:19:44;8.60;99.90
59282;DHT22;45054;52.062;10.010;2024-03-22T05:22:10;8.70;99.90
59282;DHT22;45054;52.062;10.010;2024-03-22T05:24:35;8.70;99.90
59282;DHT22;45054;52.062;10.010;2024-03-22T05:27:01;8.70;99.90
59282;DHT22;45054;52.062;10.010;2024-03-22T05:29:27;8.70;99.90
59282;DHT22;45054;52.062;10.010;2024-03-22T05:31:53;8.70;99.90
59282;DHT22;45054;52.062;10.010;2024-03-22T05:34:19;8.70;99.90
59282;DHT22;45054;52.062;10.010;2024-03-22T05:36:45;8.70;99.90
59282;DHT22;45054;52.062;10.010;2024-03-22T05:39:11;8.60;99.90
59282;DHT22;45054;52.062;10.010;2024-03-22T05:41:36;8.60;99.90
59282;DHT22;45054;52.062;10.010;2024-03-22T05:44:02;8.60;99.90
59282;DHT22;45054;52.062;10.010;2024-03-22T05:46:27;8.70;99.90
59282;DHT22;45054;52.062;10.010;2024-03-22T05:48:55;8.70;99.90
59282;DHT22;45054;52.062;10.010;2024-03-22T05:51:21;8.70;99.90
59282;DHT22;45054;52.062;10.010;2024-03-22T05:53:46;8.70;99.90
59282;DHT22;45054;52.062;10.010;2024-03-22T05:56:13;8.70;99.90
59282;DHT22;45054;52.062;10.010;2024-03-22T05:58:38;8.70;99.90
59282;DHT22;45054;52.062;10.010;2024-03-22T06:01:04;8.80;99.90
59282;DHT22;45054;52.062;10.010;2024-03-22T06:03:29;8.70;99.90
59282;DHT22;45054;52.062;10.010;2024-03-22T06:05:58;8.70;99.90
59282;DHT22;45054;52.062;10.010;2024-03-22T06:08:23;8.70;99.90
59282;DHT22;45054;52.062;10.010;2024-03-22T06:10:49;8.70;99.90
59282;DHT22;45054;52.062;10.010;2024-03-22T06:13:14;8.70;99.90
59282;DHT22;45054;52.062;10.010;2024-03-22T06:15:42;8.70;99.90
59282;DHT22;45054;52.062;10.010;2024-03-22T06:18:08;8.80;99.90
59282;DHT22;45054;52.062;10.010;2024-03-22T06:20:34;8.80;99.90
59282;DHT22;45054;52.062;10.010;2024-03-22T06:23:00;8.80;99.90
59282;DHT22;45054;52.062;10.010;2024-03-22T06:25:26;8.90;99.90
59282;DHT22;45054;52.062;10.010;2024-03-22T06:27:52;8.90;99.90
59282;DHT22;45054;52.062;10.010;2024-03-22T06:30:17;8.90;99.90
59282;DHT22;45054;52.062;10.010;2024-03-22T06:32:43;8.90;99.90
59282;DHT22;45054;52.062;10.010;2024-03-22T06:35:08;8.90;99.90
59282;DHT22;45054;52.062;10.010;2024-03-22T06:37:34;8.90;99.90
59282;DHT22;45054;52.062;10.010;2024-03-22T06:40:01;8.90;99.90
59282;DHT22;45054;52.062;10.010;2024-03-22T06:42:26;8.90;99.90
59282;DHT22;45054;52.062;10.010;2024-03-22T06:44:52;9.00;99.90
59282;DHT22;45054;52.062;10.010;2024-03-22T06:47:17;8.90;99.90
59282;DHT22;45054;52.062;10.010;2024-03-22T06:49:43;9.00;99.90
59282;DHT22;45054;52.062;10.010;2024-03-22T06:52:08;9.00;99.90
59282;DHT22;45054;52.062;10.010;2024-03-22T06:54:34;9.10;99.90
59282;DHT22;45054;52.062;10.010;2024-03-22T06:57:01;9.10;99.90
59282;DHT22;45054;52.062;10.010;2024-03-22T06:59:27;9.10;99.90
59282;DHT22;45054;52.062;10.010;2024-03-22T07:01:52;9.20;99.90
59282;DHT22;45054;52.062;10.010;2024-03-22T07:04:18;9.20;99.90
59282;DHT22;45054;52.062;10.010;2024-03-22T07:06:43;9.20;99.90
59282;DHT22;45054;52.062;10.010;2024-03-22T07:09:09;9.20;99.90
59282;DHT22;45054;52.062;10.010;2024-03-22T07:11:34;9.20;99.90
59282;DHT22;45054;52.062;10.010;2024-03-22T07:14:01;9.20;99.90
59282;DHT22;45054;52.062;10.010;2024-03-22T07:16:27;9.20;99.90
59282;DHT22;45054;52.062;10.010;2024-03-22T07:18:52;9.20;99.90
59282;DHT22;45054;52.062;10.010;2024-03-22T07:21:18;9.30;99.90
59282;DHT22;45054;52.062;10.010;2024-03-22T07:23:44;9.30;99.90
59282;DHT22;45054;52.062;10.010;2024-03-22T07:26:09;9.30;99.90
59282;DHT22;45054;52.062;10.010;2024-03-22T07:28:35;9.30;99.90
59282;DHT22;45054;52.062;10.010;2024-03-22T07:31:02;9.40;99.90
59282;DHT22;45054;52.062;10.010;2024-03-22T07:33:27;9.40;99.90
59282;DHT22;45054;52.062;10.010;2024-03-22T07:35:53;9.40;99.90
59282;DHT22;45054;52.062;10.010;2024-03-22T07:38:20;9.40;99.90
59282;DHT22;45054;52.062;10.010;2024-03-22T07:40:45;9.50;99.90
59282;DHT22;45054;52.062;10.010;2024-03-22T07:43:11;9.50;99.90
59282;DHT22;45054;52.062;10.010;2024-03-22T07:45:37;9.50;99.90
59282;DHT22;45054;52.062;10.010;2024-03-22T07:48:12;9.60;99.90
59282;DHT22;45054;52.062;10.010;2024-03-22T07:50:39;9.60;99.90
59282;DHT22;45054;52.062;10.010;2024-03-22T07:53:05;9.70;99.90
59282;DHT22;45054;52.062;10.010;2024-03-22T07:55:31;9.80;99.90
59282;DHT22;45054;52.062;10.010;2024-03-22T07:57:56;9.80;99.90
59282;DHT22;45054;52.062;10.010;2024-03-22T08:00:22;9.90;99.90
59282;DHT22;45054;52.062;10.010;2024-03-22T08:02:47;10.00;99.90
59282;DHT22;45054;52.062;10.010;2024-03-22T08:05:14;10.10;99.90
59282;DHT22;45054;52.062;10.010;2024-03-22T08:07:40;10.10;99.90
59282;DHT22;45054;52.062;10.010;2024-03-22T08:10:06;10.10;99.90
59282;DHT22;45054;52.062;10.010;2024-03-22T08:12:31;10.20;99.90
59282;DHT22;45054;52.062;10.010;2024-03-22T08:14:57;10.20;99.90
59282;DHT22;45054;52.062;10.010;2024-03-22T08:17:23;10.30;99.90
59282;DHT22;45054;52.062;10.010;2024-03-22T08:19:48;10.40;99.90
59282;DHT22;45054;52.062;10.010;2024-03-22T08:22:15;10.50;99.90
59282;DHT22;45054;52.062;10.010;2024-03-22T08:24:41;10.60;99.90
59282;DHT22;45054;52.062;10.010;2024-03-22T08:27:06;10.60;99.90
59282;DHT22;45054;52.062;10.010;2024-03-22T08:29:32;10.60;99.90
59282;DHT22;45054;52.062;10.010;2024-03-22T08:31:57;10.70;99.90
59282;DHT22;45054;52.062;10.010;2024-03-22T08:34:23;10.80;99.90
59282;DHT22;45054;52.062;10.010;2024-03-22T08:36:48;10.80;99.90
59282;DHT22;45054;52.062;10.010;2024-03-22T08:39:15;10.90;99.90
59282;DHT22;45054;52.062;10.010;2024-03-22T08:41:41;10.90;99.90
59282;DHT22;45054;52.062;10.010;2024-03-22T08:44:06;11.00;99.90
59282;DHT22;45054;52.062;10.010;2024-03-22T08:46:32;10.90;99.90
59282;DHT22;45054;52.062;10.010;2024-03-22T08:48:57;11.00;99.90
59282;DHT22;45054;52.062;10.010;2024-03-22T08:51:23;11.00;99.90
59282;DHT22;45054;52.062;10.010;2024-03-22T08:53:48;11.00;99.90
59282;DHT22;45054;52.062;10.010;2024-03-22T08:56:15;11.10;99.90
59282;DHT22;45054;52.062;10.010;2024-03-22T08:58:41;11.10;99.90
59282;DHT22;45054;52.062;10.010;2024-03-22T09:01:08;11.10;99.90
59282;DHT22;45054;52.062;10.010;2024-03-22T09:03:33;11.20;99.90
59282;DHT22;45054;52.062;10.010;2024-03-22T09:05:59;11.20;99.90
59282;DHT22;45054;52.062;10.010;2024-03-22T09:08:25;11.20;99.90
59282;DHT22;45054;52.062;10.010;2024-03-22T09:10:50;11.30;99.90
59282;DHT22;45054;52.062;10.010;2024-03-22T09:13:17;11.30;99.90
59282;DHT22;45054;52.062;10.010;2024-03-22T09:15:43;11.30;99.90
59282;DHT22;45054;52.062;10.010;2024-03-22T09:18:08;11.40;99.90
59282;DHT22;45054;52.062;10.010;2024-03-22T09:20:34;11.40;99.90
59282;DHT22;45054;52.062;10.010;2024-03-22T09:23:00;11.40;99.90
59282;DHT22;45054;52.062;10.010;2024-03-22T09:25:25;11.50;99.90
59282;DHT22;45054;52.062;10.010;2024-03-22T09:27:51;11.50;99.90
59282;DHT22;45054;52.062;10.010;2024-03-22T09:30:18;11.60;99.90
59282;DHT22;45054;52.062;10.010;2024-03-22T09:32:44;11.60;99.90
59282;DHT22;45054;52.062;10.010;2024-03-22T09:37:41;11.70;99.90
59282;DHT22;45054;52.062;10.010;2024-03-22T09:40:07;11.70;99.90
59282;DHT22;45054;52.062;10.010;2024-03-22T09:42:33;11.70;99.90
59282;DHT22;45054;52.062;10.010;2024-03-22T09:44:58;11.80;99.90
59282;DHT22;45054;52.062;10.010;2024-03-22T09:47:27;11.90;99.90
59282;DHT22;45054;52.062;10.010;2024-03-22T09:49:53;12.00;99.90
59282;DHT22;45054;52.062;10.010;2024-03-22T09:52:20;12.00;99.90
59282;DHT22;45054;52.062;10.010;2024-03-22T09:54:45;12.10;99.90
59282;DHT22;45054;52.062;10.010;2024-03-22T09:57:14;12.20;99.90
59282;DHT22;45054;52.062;10.010;2024-03-22T09:59:40;12.20;99.90
59282;DHT22;45054;52.062;10.010;2024-03-22T10:02:07;12.30;99.90
59282;DHT22;45054;52.062;10.010;2024-03-22T10:04:35;12.40;99.90
59282;DHT22;45054;52.062;10.010;2024-03-22T10:07:01;12.40;99.90
59282;DHT22;45054;52.062;10.010;2024-03-22T10:09:30;12.50;99.90
59282;DHT22;45054;52.062;10.010;2024-03-22T10:11:55;12.60;99.90
59282;DHT22;45054;52.062;10.010;2024-03-22T10:14:21;12.60;99.90
59282;DHT22;45054;52.062;10.010;2024-03-22T10:16:46;12.60;99.90
59282;DHT22;45054;52.062;10.010;2024-03-22T10:19:12;12.60;99.90
59282;DHT22;45054;52.062;10.010;2024-03-22T10:21:39;12.70;99.90
59282;DHT22;45054;52.062;10.010;2024-03-22T10:24:05;12.70;99.90
59282;DHT22;45054;52.062;10.010;2024-03-22T10:26:32;12.70;99.90
59282;DHT22;45054;52.062;10.010;2024-03-22T10:29:01;12.80;99.90
59282;DHT22;45054;52.062;10.010;2024-03-22T10:31:27;12.80;99.90
59282;DHT22;45054;52.062;10.010;2024-03-22T10:33:54;12.80;99.90
59282;DHT22;45054;52.062;10.010;2024-03-22T10:36:20;12.80;99.90
59282;DHT22;45054;52.062;10.010;2024-03-22T10:38:49;12.80;99.90
59282;DHT22;45054;52.062;10.010;2024-03-22T10:41:15;12.90;99.90
59282;DHT22;45054;52.062;10.010;2024-03-22T10:43:40;12.80;99.90
59282;DHT22;45054;52.062;10.010;2024-03-22T10:46:08;12.90;99.90
59282;DHT22;45054;52.062;10.010;2024-03-22T10:48:35;12.90;99.90
59282;DHT22;45054;52.062;10.010;2024-03-22T10:51:01;12.90;99.90
59282;DHT22;45054;52.062;10.010;2024-03-22T10:53:28;13.00;99.90
59282;DHT22;45054;52.062;10.010;2024-03-22T10:55:58;13.00;99.90
59282;DHT22;45054;52.062;10.010;2024-03-22T10:58:25;13.10;99.90
59282;DHT22;45054;52.062;10.010;2024-03-22T11:00:52;13.00;99.90
59282;DHT22;45054;52.062;10.010;2024-03-22T11:03:19;13.00;99.90
59282;DHT22;45054;52.062;10.010;2024-03-22T11:05:45;13.00;99.90
59282;DHT22;45054;52.062;10.010;2024-03-22T11:08:11;13.10;99.90
59282;DHT22;45054;52.062;10.010;2024-03-22T11:10:37;13.10;99.90
59282;DHT22;45054;52.062;10.010;2024-03-22T11:13:05;13.10;99.90
59282;DHT22;45054;52.062;10.010;2024-03-22T11:15:31;13.10;99.90
59282;DHT22;45054;52.062;10.010;2024-03-22T11:17:57;13.10;99.90
59282;DHT22;45054;52.062;10.010;2024-03-22T11:20:22;13.10;99.90
59282;DHT22;45054;52.062;10.010;2024-03-22T11:22:48;13.10;99.90
59282;DHT22;45054;52.062;10.010;2024-03-22T11:25:14;13.10;99.90
59282;DHT22;45054;52.062;10.010;2024-03-22T11:27:39;13.10;99.90
59282;DHT22;45054;52.062;10.010;2024-03-22T11:30:07;13.10;99.90
59282;DHT22;45054;52.062;10.010;2024-03-22T11:32:33;13.10;99.90
59282;DHT22;45054;52.062;10.010;2024-03-22T11:34:59;13.10;99.90
59282;DHT22;45054;52.062;10.010;2024-03-22T11:37:25;13.10;99.90
59282;DHT22;45054;52.062;10.010;2024-03-22T11:39:51;13.10;99.90
59282;DHT22;45054;52.062;10.010;2024-03-22T11:42:17;13.10;99.90
59282;DHT22;45054;52.062;10.010;2024-03-22T11:44:43;13.10;99.90
59282;DHT22;45054;52.062;10.010;2024-03-22T11:47:11;13.10;99.90
59282;DHT22;45054;52.062;10.010;2024-03-22T11:49:37;13.20;99.90
59282;DHT22;45054;52.062;10.010;2024-03-22T11:52:02;13.20;99.90
59282;DHT22;45054;52.062;10.010;2024-03-22T11:54:28;13.20;99.90
59282;DHT22;45054;52.062;10.010;2024-03-22T11:56:55;13.20;99.90
59282;DHT22;45054;52.062;10.010;2024-03-22T11:59:21;13.20;99.90
59282;DHT22;45054;52.062;10.010;2024-03-22T12:01:47;13.30;99.90
59282;DHT22;45054;52.062;10.010;2024-03-22T12:04:14;13.30;99.90
59282;DHT22;45054;52.062;10.010;2024-03-22T12:06:41;13.30;99.90
59282;DHT22;45054;52.062;10.010;2024-03-22T12:09:06;13.30;99.90
59282;DHT22;45054;52.062;10.010;2024-03-22T12:11:32;13.40;99.90
59282;DHT22;45054;52.062;10.010;2024-03-22T12:13:58;13.40;99.90
59282;DHT22;45054;52.062;10.010;2024-03-22T12:16:23;13.40;99.90
59282;DHT22;45054;52.062;10.010;2024-03-22T12:18:49;13.40;99.90
59282;DHT22;45054;52.062;10.010;2024-03-22T12:21:15;13.40;99.90
59282;DHT22;45054;52.062;10.010;2024-03-22T12:23:41;13.50;99.90
59282;DHT22;45054;52.062;10.010;2024-03-22T12:26:07;13.60;99.90
59282;DHT22;45054;52.062;10.010;2024-03-22T12:28:32;13.60;99.90
59282;DHT22;45054;52.062;10.010;2024-03-22T12:30:58;13.60;99.90
59282;DHT22;45054;52.062;10.010;2024-03-22T12:33:23;13.60;99.90
59282;DHT22;45054;52.062;10.010;2024-03-22T12:35:49;13.70;99.90
59282;DHT22;45054;52.062;10.010;2024-03-22T12:38:16;13.60;99.90
59282;DHT22;45054;52.062;10.010;2024-03-22T12:40:41;13.60;99.90
59282;DHT22;45054;52.062;10.010;2024-03-22T12:43:09;13.60;99.90
59282;DHT22;45054;52.062;10.010;2024-03-22T12:45:35;13.60;99.90
59282;DHT22;45054;52.062;10.010;2024-03-22T12:48:01;13.70;99.90
59282;DHT22;45054;52.062;10.010;2024-03-22T12:50:26;13.70;99.90
59282;DHT22;45054;52.062;10.010;2024-03-22T12:52:52;13.70;99.90
59282;DHT22;45054;52.062;10.010;2024-03-22T12:55:19;13.70;99.90
59282;DHT22;45054;52.062;10.010;2024-03-22T12:57:45;13.70;99.90
59282;DHT22;45054;52.062;10.010;2024-03-22T13:00:11;13.70;99.90
59282;DHT22;45054;52.062;10.010;2024-03-22T13:02:37;13.70;99.90
59282;DHT22;45054;52.062;10.010;2024-03-22T13:05:02;13.70;99.90
59282;DHT22;45054;52.062;10.010;2024-03-22T13:07:28;13.70;99.90
59282;DHT22;45054;52.062;10.010;2024-03-22T13:09:56;13.70;99.90
59282;DHT22;45054;52.062;10.010;2024-03-22T13:12:23;13.70;99.90
59282;DHT22;45054;52.062;10.010;2024-03-22T13:14:48;13.70;99.90
59282;DHT22;45054;52.062;10.010;2024-03-22T13:17:14;13.70;99.90
59282;DHT22;45054;52.062;10.010;2024-03-22T13:19:39;13.70;99.90
59282;DHT22;45054;52.062;10.010;2024-03-22T13:22:05;13.70;99.90
59282;DHT22;45054;52.062;10.010;2024-03-22T13:24:30;13.70;99.90
59282;DHT22;45054;52.062;10.010;2024-03-22T13:26:56;13.70;99.90
59282;DHT22;45054;52.062;10.010;2024-03-22T13:29:23;13.60;99.90
59282;DHT22;45054;52.062;10.010;2024-03-22T13:31:48;13.70;99.90
59282;DHT22;45054;52.062;10.010;2024-03-22T13:34:14;13.70;99.90
59282;DHT22;45054;52.062;10.010;2024-03-22T13:36:39;13.70;99.90
59282;DHT22;45054;52.062;10.010;2024-03-22T13:39:06;13.70;99.90
59282;DHT22;45054;52.062;10.010;2024-03-22T13:41:31;13.70;99.90
59282;DHT22;45054;52.062;10.010;2024-03-22T13:43:57;13.70;99.90
59282;DHT22;45054;52.062;10.010;2024-03-22T13:46:24;13.70;99.90
59282;DHT22;45054;52.062;10.010;2024-03-22T13:48:50;13.70;99.90
59282;DHT22;45054;52.062;10.010;2024-03-22T13:51:15;13.80;99.90
59282;DHT22;45054;52.062;10.010;2024-03-22T13:53:41;13.70;99.90
59282;DHT22;45054;52.062;10.010;2024-03-22T13:56:06;13.70;99.90
59282;DHT22;45054;52.062;10.010;2024-03-22T13:58:32;13.70;99.90
59282;DHT22;45054;52.062;10.010;2024-03-22T14:00:57;13.70;99.90
59282;DHT22;45054;52.062;10.010;2024-03-22T14:03:28;13.60;99.90
59282;DHT22;45054;52.062;10.010;2024-03-22T14:05:54;13.60;99.90
59282;DHT22;45054;52.062;10.010;2024-03-22T14:08:19;13.60;99.90
59282;DHT22;45054;52.062;10.010;2024-03-22T14:10:45;13.60;99.90
59282;DHT22;45054;52.062;10.010;2024-03-22T14:13:11;13.60;99.90
59282;DHT22;45054;52.062;10.010;2024-03-22T14:15:36;13.50;99.90
59282;DHT22;45054;52.062;10.010;2024-03-22T14:18:02;13.50;99.90
59282;DHT22;45054;52.062;10.010;2024-03-22T14:20:29;13.50;99.90
59282;DHT22;45054;52.062;10.010;2024-03-22T14:22:54;13.50;99.90
59282;DHT22;45054;52.062;10.010;2024-03-22T14:25:20;13.40;99.90
59282;DHT22;45054;52.062;10.010;2024-03-22T14:27:45;13.30;99.90
59282;DHT22;45054;52.062;10.010;2024-03-22T14:30:12;13.20;99.90
59282;DHT22;45054;52.062;10.010;2024-03-22T14:32:38;13.10;99.90
59282;DHT22;45054;52.062;10.010;2024-03-22T14:35:04;13.00;99.90
59282;DHT22;45054;52.062;10.010;2024-03-22T14:37:31;12.80;99.90
59282;DHT22;45054;52.062;10.010;2024-03-22T14:39:57;12.80;99.90
59282;DHT22;45054;52.062;10.010;2024-03-22T14:42:22;12.70;99.90
59282;DHT22;45054;52.062;10.010;2024-03-22T14:44:48;12.60;99.90
59282;DHT22;45054;52.062;10.010;2024-03-22T14:47:13;12.60;99.90
59282;DHT22;45054;52.062;10.010;2024-03-22T14:49:39;12.50;99.90
59282;DHT22;45054;52.062;10.010;2024-03-22T14:52:05;12.50;99.90
59282;DHT22;45054;52.062;10.010;2024-03-22T14:54:32;12.40;99.90
59282;DHT22;45054;52.062;10.010;2024-03-22T14:56:58;12.40;99.90
59282;DHT22;45054;52.062;10.010;2024-03-22T14:59:27;12.30;99.90
59282;DHT22;45054;52.062;10.010;2024-03-22T15:01:53;12.30;99.90
59282;DHT22;45054;52.062;10.010;2024-03-22T15:04:18;12.30;99.90
59282;DHT22;45054;52.062;10.010;2024-03-22T15:06:44;12.20;99.90
59282;DHT22;45054;52.062;10.010;2024-03-22T15:09:09;12.10;99.90
59282;DHT22;45054;52.062;10.010;2024-03-22T15:11:36;12.10;99.90
59282;DHT22;45054;52.062;10.010;2024-03-22T15:19:26;12.00;99.90
59282;DHT22;45054;52.062;10.010;2024-03-22T15:21:54;12.00;99.90
59282;DHT22;45054;52.062;10.010;2024-03-22T15:24:19;12.00;99.90